sensor_id;sensor_type;location;lat;lon;timestamp;P1;durP1;ratioP1;P2;durP2;ratioP2
48092;SDS011;33873;47.442;18.902;2023-05-16T00:01:57;1.55;;;1.00;;
48092;SDS011;33873;47.442;18.902;2023-05-16T00:04:25;1.27;;;0.88;;
48092;SDS011;33873;47.442;18.902;2023-05-16T00:06:53;2.47;;;1.20;;
48092;SDS011;33873;47.442;18.902;2023-05-16T00:09:21;6.10;;;1.45;;
48092;SDS011;33873;47.442;18.902;2023-05-16T00:11:49;2.33;;;1.27;;
48092;SDS011;33873;47.442;18.902;2023-05-16T00:14:17;3.08;;;1.30;;
48092;SDS011;33873;47.442;18.902;2023-05-16T00:16:45;1.80;;;1.08;;
48092;SDS011;33873;47.442;18.902;2023-05-16T00:19:14;1.60;;;0.95;;
48092;SDS011;33873;47.442;18.902;2023-05-16T00:21:42;7.85;;;1.25;;
48092;SDS011;33873;47.442;18.902;2023-05-16T00:24:10;2.55;;;1.15;;
48092;SDS011;33873;47.442;18.902;2023-05-16T00:26:38;2.90;;;1.17;;
48092;SDS011;33873;47.442;18.902;2023-05-16T00:29:06;1.92;;;1.27;;
48092;SDS011;33873;47.442;18.902;2023-05-16T00:31:33;1.85;;;0.98;;
48092;SDS011;33873;47.442;18.902;2023-05-16T00:34:01;4.97;;;1.70;;
48092;SDS011;33873;47.442;18.902;2023-05-16T00:36:29;2.40;;;1.05;;
48092;SDS011;33873;47.442;18.902;2023-05-16T00:38:57;2.92;;;1.45;;
48092;SDS011;33873;47.442;18.902;2023-05-16T00:41:26;1.55;;;0.90;;
48092;SDS011;33873;47.442;18.902;2023-05-16T00:43:53;2.40;;;1.12;;
48092;SDS011;33873;47.442;18.902;2023-05-16T00:46:21;1.35;;;1.10;;
48092;SDS011;33873;47.442;18.902;2023-05-16T00:48:50;2.92;;;1.37;;
48092;SDS011;33873;47.442;18.902;2023-05-16T00:51:18;1.50;;;0.88;;
48092;SDS011;33873;47.442;18.902;2023-05-16T00:53:45;2.17;;;1.10;;
48092;SDS011;33873;47.442;18.902;2023-05-16T00:56:13;1.00;;;0.95;;
48092;SDS011;33873;47.442;18.902;2023-05-16T00:58:41;1.12;;;0.90;;
48092;SDS011;33873;47.442;18.902;2023-05-16T01:01:08;2.10;;;1.10;;
48092;SDS011;33873;47.442;18.902;2023-05-16T01:03:37;1.52;;;1.00;;
48092;SDS011;33873;47.442;18.902;2023-05-16T01:06:05;1.77;;;1.12;;
48092;SDS011;33873;47.442;18.902;2023-05-16T01:08:33;1.40;;;0.95;;
48092;SDS011;33873;47.442;18.902;2023-05-16T01:11:08;2.28;;;1.42;;
48092;SDS011;33873;47.442;18.902;2023-05-16T01:13:43;1.20;;;0.90;;
48092;SDS011;33873;47.442;18.902;2023-05-16T01:16:29;2.58;;;1.27;;
48092;SDS011;33873;47.442;18.902;2023-05-16T01:21:54;5.47;;;1.27;;
48092;SDS011;33873;47.442;18.902;2023-05-16T01:24:43;1.15;;;0.93;;
48092;SDS011;33873;47.442;18.902;2023-05-16T01:27:18;1.70;;;1.20;;
48092;SDS011;33873;47.442;18.902;2023-05-16T01:29:45;3.90;;;1.23;;
48092;SDS011;33873;47.442;18.902;2023-05-16T01:32:13;1.85;;;0.98;;
48092;SDS011;33873;47.442;18.902;2023-05-16T01:34:41;2.35;;;1.48;;
48092;SDS011;33873;47.442;18.902;2023-05-16T01:37:11;5.30;;;1.23;;
48092;SDS011;33873;47.442;18.902;2023-05-16T01:39:47;1.62;;;1.05;;
48092;SDS011;33873;47.442;18.902;2023-05-16T01:42:20;1.27;;;0.95;;
48092;SDS011;33873;47.442;18.902;2023-05-16T01:47:19;1.37;;;0.75;;
48092;SDS011;33873;47.442;18.902;2023-05-16T01:55:59;1.67;;;1.08;;
48092;SDS011;33873;47.442;18.902;2023-05-16T01:58:11;1.65;;;1.10;;
48092;SDS011;33873;47.442;18.902;2023-05-16T02:00:40;1.80;;;0.90;;
48092;SDS011;33873;47.442;18.902;2023-05-16T02:03:08;3.17;;;1.48;;
48092;SDS011;33873;47.442;18.902;2023-05-16T02:05:35;0.82;;;0.73;;
48092;SDS011;33873;47.442;18.902;2023-05-16T02:08:03;1.65;;;1.20;;
48092;SDS011;33873;47.442;18.902;2023-05-16T02:10:31;1.10;;;0.77;;
48092;SDS011;33873;47.442;18.902;2023-05-16T02:12:59;1.25;;;0.82;;
48092;SDS011;33873;47.442;18.902;2023-05-16T02:15:26;18.30;;;1.95;;
48092;SDS011;33873;47.442;18.902;2023-05-16T02:17:55;0.98;;;0.62;;
48092;SDS011;33873;47.442;18.902;2023-05-16T02:20:22;0.50;;;0.50;;
48092;SDS011;33873;47.442;18.902;2023-05-16T02:22:50;0.95;;;0.70;;
48092;SDS011;33873;47.442;18.902;2023-05-16T02:25:18;0.57;;;0.57;;
48092;SDS011;33873;47.442;18.902;2023-05-16T02:27:45;2.08;;;0.75;;
48092;SDS011;33873;47.442;18.902;2023-05-16T02:30:13;7.68;;;1.02;;
48092;SDS011;33873;47.442;18.902;2023-05-16T02:32:40;5.32;;;0.60;;
48092;SDS011;33873;47.442;18.902;2023-05-16T02:35:11;0.68;;;0.60;;
48092;SDS011;33873;47.442;18.902;2023-05-16T02:37:39;2.55;;;0.50;;
48092;SDS011;33873;47.442;18.902;2023-05-16T02:40:07;0.75;;;0.75;;
48092;SDS011;33873;47.442;18.902;2023-05-16T02:42:35;0.88;;;0.85;;
48092;SDS011;33873;47.442;18.902;2023-05-16T02:45:03;1.08;;;0.77;;
48092;SDS011;33873;47.442;18.902;2023-05-16T02:47:31;0.90;;;0.82;;
48092;SDS011;33873;47.442;18.902;2023-05-16T02:49:59;1.15;;;1.05;;
48092;SDS011;33873;47.442;18.902;2023-05-16T02:52:26;1.23;;;0.70;;
48092;SDS011;33873;47.442;18.902;2023-05-16T02:54:54;2.00;;;0.80;;
48092;SDS011;33873;47.442;18.902;2023-05-16T02:57:42;0.52;;;0.52;;
48092;SDS011;33873;47.442;18.902;2023-05-16T03:00:11;2.30;;;0.95;;
48092;SDS011;33873;47.442;18.902;2023-05-16T03:02:42;2.22;;;1.08;;
48092;SDS011;33873;47.442;18.902;2023-05-16T03:05:11;0.55;;;0.55;;
48092;SDS011;33873;47.442;18.902;2023-05-16T03:07:39;0.62;;;0.62;;
48092;SDS011;33873;47.442;18.902;2023-05-16T03:10:07;1.15;;;1.00;;
48092;SDS011;33873;47.442;18.902;2023-05-16T03:12:35;2.75;;;0.85;;
48092;SDS011;33873;47.442;18.902;2023-05-16T03:15:03;0.65;;;0.60;;
48092;SDS011;33873;47.442;18.902;2023-05-16T03:17:31;0.40;;;0.40;;
48092;SDS011;33873;47.442;18.902;2023-05-16T03:19:58;1.23;;;0.70;;
48092;SDS011;33873;47.442;18.902;2023-05-16T03:22:26;1.50;;;0.80;;
48092;SDS011;33873;47.442;18.902;2023-05-16T03:24:54;0.80;;;0.73;;
48092;SDS011;33873;47.442;18.902;2023-05-16T03:27:21;1.58;;;1.00;;
48092;SDS011;33873;47.442;18.902;2023-05-16T03:29:49;0.50;;;0.50;;
48092;SDS011;33873;47.442;18.902;2023-05-16T03:32:16;0.50;;;0.50;;
48092;SDS011;33873;47.442;18.902;2023-05-16T03:34:44;1.40;;;0.80;;
48092;SDS011;33873;47.442;18.902;2023-05-16T03:37:13;0.75;;;0.75;;
48092;SDS011;33873;47.442;18.902;2023-05-16T03:39:42;1.12;;;0.85;;
48092;SDS011;33873;47.442;18.902;2023-05-16T03:42:09;1.95;;;1.40;;
48092;SDS011;33873;47.442;18.902;2023-05-16T03:44:37;4.18;;;0.75;;
48092;SDS011;33873;47.442;18.902;2023-05-16T03:47:04;0.50;;;0.50;;
48092;SDS011;33873;47.442;18.902;2023-05-16T03:49:32;1.30;;;0.98;;
48092;SDS011;33873;47.442;18.902;2023-05-16T03:52:00;0.75;;;0.52;;
48092;SDS011;33873;47.442;18.902;2023-05-16T03:54:28;1.48;;;0.80;;
48092;SDS011;33873;47.442;18.902;2023-05-16T03:56:55;2.05;;;0.93;;
48092;SDS011;33873;47.442;18.902;2023-05-16T03:59:23;2.62;;;1.20;;
48092;SDS011;33873;47.442;18.902;2023-05-16T04:01:50;1.77;;;1.05;;
48092;SDS011;33873;47.442;18.902;2023-05-16T04:04:18;1.75;;;0.93;;
48092;SDS011;33873;47.442;18.902;2023-05-16T04:06:45;3.97;;;1.00;;
48092;SDS011;33873;47.442;18.902;2023-05-16T04:09:13;1.55;;;1.02;;
48092;SDS011;33873;47.442;18.902;2023-05-16T04:11:41;2.95;;;1.02;;
48092;SDS011;33873;47.442;18.902;2023-05-16T04:14:09;0.50;;;0.50;;
48092;SDS011;33873;47.442;18.902;2023-05-16T04:16:37;1.65;;;0.90;;
48092;SDS011;33873;47.442;18.902;2023-05-16T04:19:04;2.65;;;1.25;;
48092;SDS011;33873;47.442;18.902;2023-05-16T04:21:32;1.55;;;0.85;;
48092;SDS011;33873;47.442;18.902;2023-05-16T04:24:00;0.73;;;0.73;;
48092;SDS011;33873;47.442;18.902;2023-05-16T04:26:28;1.08;;;0.95;;
48092;SDS011;33873;47.442;18.902;2023-05-16T04:28:56;3.83;;;1.08;;
48092;SDS011;33873;47.442;18.902;2023-05-16T04:31:26;1.92;;;1.20;;
48092;SDS011;33873;47.442;18.902;2023-05-16T04:33:54;1.95;;;1.50;;
48092;SDS011;33873;47.442;18.902;2023-05-16T04:36:22;0.85;;;0.75;;
48092;SDS011;33873;47.442;18.902;2023-05-16T04:38:50;0.88;;;0.57;;
48092;SDS011;33873;47.442;18.902;2023-05-16T04:41:18;2.28;;;0.98;;
48092;SDS011;33873;47.442;18.902;2023-05-16T04:43:46;1.75;;;0.80;;
48092;SDS011;33873;47.442;18.902;2023-05-16T04:46:13;1.37;;;0.93;;
48092;SDS011;33873;47.442;18.902;2023-05-16T04:48:44;1.48;;;0.98;;
48092;SDS011;33873;47.442;18.902;2023-05-16T04:51:12;0.80;;;0.75;;
48092;SDS011;33873;47.442;18.902;2023-05-16T04:53:39;7.05;;;0.98;;
48092;SDS011;33873;47.442;18.902;2023-05-16T04:56:07;1.35;;;1.27;;
48092;SDS011;33873;47.442;18.902;2023-05-16T04:58:35;2.00;;;1.12;;
48092;SDS011;33873;47.442;18.902;2023-05-16T05:01:03;1.27;;;0.65;;
48092;SDS011;33873;47.442;18.902;2023-05-16T05:03:31;0.82;;;0.52;;
48092;SDS011;33873;47.442;18.902;2023-05-16T05:05:58;1.25;;;0.75;;
48092;SDS011;33873;47.442;18.902;2023-05-16T05:08:26;1.65;;;1.20;;
48092;SDS011;33873;47.442;18.902;2023-05-16T05:10:56;1.37;;;0.85;;
48092;SDS011;33873;47.442;18.902;2023-05-16T05:13:24;1.27;;;0.90;;
48092;SDS011;33873;47.442;18.902;2023-05-16T05:15:51;1.27;;;0.85;;
48092;SDS011;33873;47.442;18.902;2023-05-16T05:18:19;0.70;;;0.70;;
48092;SDS011;33873;47.442;18.902;2023-05-16T05:20:47;2.15;;;1.37;;
48092;SDS011;33873;47.442;18.902;2023-05-16T05:23:14;1.45;;;0.93;;
48092;SDS011;33873;47.442;18.902;2023-05-16T05:25:42;2.83;;;1.33;;
48092;SDS011;33873;47.442;18.902;2023-05-16T05:28:09;2.42;;;1.27;;
48092;SDS011;33873;47.442;18.902;2023-05-16T05:30:37;1.45;;;1.00;;
48092;SDS011;33873;47.442;18.902;2023-05-16T05:33:06;2.60;;;0.98;;
48092;SDS011;33873;47.442;18.902;2023-05-16T05:35:34;2.90;;;1.27;;
48092;SDS011;33873;47.442;18.902;2023-05-16T05:38:01;2.55;;;1.30;;
48092;SDS011;33873;47.442;18.902;2023-05-16T05:40:29;1.85;;;1.27;;
48092;SDS011;33873;47.442;18.902;2023-05-16T05:42:57;5.47;;;1.05;;
48092;SDS011;33873;47.442;18.902;2023-05-16T05:45:24;1.90;;;1.15;;
48092;SDS011;33873;47.442;18.902;2023-05-16T05:47:52;1.37;;;1.00;;
48092;SDS011;33873;47.442;18.902;2023-05-16T05:50:20;1.40;;;0.82;;
48092;SDS011;33873;47.442;18.902;2023-05-16T05:52:48;2.05;;;1.20;;
48092;SDS011;33873;47.442;18.902;2023-05-16T05:55:15;2.03;;;1.27;;
48092;SDS011;33873;47.442;18.902;2023-05-16T05:57:43;2.03;;;1.23;;
48092;SDS011;33873;47.442;18.902;2023-05-16T06:00:10;2.12;;;1.50;;
48092;SDS011;33873;47.442;18.902;2023-05-16T06:02:38;2.30;;;1.30;;
48092;SDS011;33873;47.442;18.902;2023-05-16T06:05:06;1.80;;;1.12;;
48092;SDS011;33873;47.442;18.902;2023-05-16T06:07:34;1.55;;;1.05;;
48092;SDS011;33873;47.442;18.902;2023-05-16T06:10:02;1.50;;;0.95;;
48092;SDS011;33873;47.442;18.902;2023-05-16T06:12:31;1.85;;;1.17;;
48092;SDS011;33873;47.442;18.902;2023-05-16T06:14:59;1.10;;;0.93;;
48092;SDS011;33873;47.442;18.902;2023-05-16T06:17:27;1.35;;;0.85;;
48092;SDS011;33873;47.442;18.902;2023-05-16T06:19:54;3.00;;;1.12;;
48092;SDS011;33873;47.442;18.902;2023-05-16T06:22:22;2.12;;;1.20;;
48092;SDS011;33873;47.442;18.902;2023-05-16T06:24:49;1.40;;;1.00;;
48092;SDS011;33873;47.442;18.902;2023-05-16T06:27:17;1.33;;;0.90;;
48092;SDS011;33873;47.442;18.902;2023-05-16T06:29:44;1.62;;;1.00;;
48092;SDS011;33873;47.442;18.902;2023-05-16T06:32:12;1.50;;;0.95;;
48092;SDS011;33873;47.442;18.902;2023-05-16T06:34:40;2.85;;;1.25;;
48092;SDS011;33873;47.442;18.902;2023-05-16T06:37:07;1.70;;;1.30;;
48092;SDS011;33873;47.442;18.902;2023-05-16T06:39:35;2.25;;;1.10;;
48092;SDS011;33873;47.442;18.902;2023-05-16T06:42:03;2.85;;;1.85;;
48092;SDS011;33873;47.442;18.902;2023-05-16T06:44:31;2.85;;;1.42;;
48092;SDS011;33873;47.442;18.902;2023-05-16T06:46:59;2.83;;;1.83;;
48092;SDS011;33873;47.442;18.902;2023-05-16T06:49:26;3.25;;;1.40;;
48092;SDS011;33873;47.442;18.902;2023-05-16T06:51:54;2.42;;;1.77;;
48092;SDS011;33873;47.442;18.902;2023-05-16T06:54:21;5.05;;;1.67;;
48092;SDS011;33873;47.442;18.902;2023-05-16T06:56:49;3.92;;;1.65;;
48092;SDS011;33873;47.442;18.902;2023-05-16T06:59:16;3.42;;;1.83;;
48092;SDS011;33873;47.442;18.902;2023-05-16T07:01:44;2.70;;;1.55;;
48092;SDS011;33873;47.442;18.902;2023-05-16T07:04:12;4.53;;;2.65;;
48092;SDS011;33873;47.442;18.902;2023-05-16T07:06:40;2.83;;;1.80;;
48092;SDS011;33873;47.442;18.902;2023-05-16T07:09:08;4.18;;;2.17;;
48092;SDS011;33873;47.442;18.902;2023-05-16T07:11:36;4.43;;;2.42;;
48092;SDS011;33873;47.442;18.902;2023-05-16T07:14:03;4.00;;;1.83;;
48092;SDS011;33873;47.442;18.902;2023-05-16T07:16:31;4.15;;;1.92;;
48092;SDS011;33873;47.442;18.902;2023-05-16T07:18:59;2.85;;;2.08;;
48092;SDS011;33873;47.442;18.902;2023-05-16T07:21:26;15.70;;;3.35;;
48092;SDS011;33873;47.442;18.902;2023-05-16T07:23:56;3.05;;;1.95;;
48092;SDS011;33873;47.442;18.902;2023-05-16T07:26:23;3.53;;;2.28;;
48092;SDS011;33873;47.442;18.902;2023-05-16T07:28:51;4.37;;;2.33;;
48092;SDS011;33873;47.442;18.902;2023-05-16T07:31:19;4.68;;;2.12;;
48092;SDS011;33873;47.442;18.902;2023-05-16T07:33:46;4.70;;;2.47;;
48092;SDS011;33873;47.442;18.902;2023-05-16T07:36:15;4.87;;;2.80;;
48092;SDS011;33873;47.442;18.902;2023-05-16T07:38:44;4.07;;;2.60;;
48092;SDS011;33873;47.442;18.902;2023-05-16T07:41:11;7.47;;;3.03;;
48092;SDS011;33873;47.442;18.902;2023-05-16T07:43:39;4.87;;;2.70;;
48092;SDS011;33873;47.442;18.902;2023-05-16T07:46:07;3.70;;;2.22;;
48092;SDS011;33873;47.442;18.902;2023-05-16T07:48:35;5.18;;;3.08;;
48092;SDS011;33873;47.442;18.902;2023-05-16T07:51:02;5.35;;;3.37;;
48092;SDS011;33873;47.442;18.902;2023-05-16T07:53:30;3.58;;;2.53;;
48092;SDS011;33873;47.442;18.902;2023-05-16T07:55:58;7.32;;;3.55;;
48092;SDS011;33873;47.442;18.902;2023-05-16T07:58:26;5.85;;;4.00;;
48092;SDS011;33873;47.442;18.902;2023-05-16T08:00:54;7.68;;;4.68;;
48092;SDS011;33873;47.442;18.902;2023-05-16T08:03:22;7.22;;;4.35;;
48092;SDS011;33873;47.442;18.902;2023-05-16T08:05:50;11.43;;;5.25;;
48092;SDS011;33873;47.442;18.902;2023-05-16T08:08:20;6.90;;;3.15;;
48092;SDS011;33873;47.442;18.902;2023-05-16T08:10:48;7.12;;;4.37;;
48092;SDS011;33873;47.442;18.902;2023-05-16T08:13:16;6.93;;;3.53;;
48092;SDS011;33873;47.442;18.902;2023-05-16T08:15:43;8.70;;;4.70;;
48092;SDS011;33873;47.442;18.902;2023-05-16T08:18:12;4.75;;;3.10;;
48092;SDS011;33873;47.442;18.902;2023-05-16T08:20:43;6.90;;;4.00;;
48092;SDS011;33873;47.442;18.902;2023-05-16T08:23:12;7.03;;;3.80;;
48092;SDS011;33873;47.442;18.902;2023-05-16T08:25:40;7.05;;;3.55;;
48092;SDS011;33873;47.442;18.902;2023-05-16T08:28:08;5.05;;;3.55;;
48092;SDS011;33873;47.442;18.902;2023-05-16T08:30:36;7.97;;;4.53;;
48092;SDS011;33873;47.442;18.902;2023-05-16T08:33:06;6.65;;;3.95;;
48092;SDS011;33873;47.442;18.902;2023-05-16T08:35:34;7.37;;;3.75;;
48092;SDS011;33873;47.442;18.902;2023-05-16T08:38:02;8.82;;;4.62;;
48092;SDS011;33873;47.442;18.902;2023-05-16T08:40:29;10.45;;;4.68;;
48092;SDS011;33873;47.442;18.902;2023-05-16T08:42:57;12.70;;;4.07;;
48092;SDS011;33873;47.442;18.902;2023-05-16T08:45:25;4.65;;;2.85;;
48092;SDS011;33873;47.442;18.902;2023-05-16T08:47:54;3.90;;;2.45;;
48092;SDS011;33873;47.442;18.902;2023-05-16T08:50:23;3.65;;;2.15;;
48092;SDS011;33873;47.442;18.902;2023-05-16T08:52:51;6.75;;;3.65;;
48092;SDS011;33873;47.442;18.902;2023-05-16T08:55:20;5.75;;;3.15;;
48092;SDS011;33873;47.442;18.902;2023-05-16T08:57:50;6.28;;;3.40;;
48092;SDS011;33873;47.442;18.902;2023-05-16T09:00:18;9.45;;;4.95;;
48092;SDS011;33873;47.442;18.902;2023-05-16T09:02:46;4.68;;;1.87;;
48092;SDS011;33873;47.442;18.902;2023-05-16T09:05:15;6.78;;;2.67;;
48092;SDS011;33873;47.442;18.902;2023-05-16T09:07:44;8.32;;;3.55;;
48092;SDS011;33873;47.442;18.902;2023-05-16T09:10:12;5.65;;;2.50;;
48092;SDS011;33873;47.442;18.902;2023-05-16T09:12:40;4.12;;;2.72;;
48092;SDS011;33873;47.442;18.902;2023-05-16T09:15:08;3.97;;;1.87;;
48092;SDS011;33873;47.442;18.902;2023-05-16T09:17:37;3.58;;;2.50;;
48092;SDS011;33873;47.442;18.902;2023-05-16T09:20:13;4.15;;;2.37;;
48092;SDS011;33873;47.442;18.902;2023-05-16T09:25:22;4.57;;;1.95;;
48092;SDS011;33873;47.442;18.902;2023-05-16T09:27:58;4.43;;;2.55;;
48092;SDS011;33873;47.442;18.902;2023-05-16T09:30:30;4.37;;;2.30;;
48092;SDS011;33873;47.442;18.902;2023-05-16T09:32:58;1.77;;;1.17;;
48092;SDS011;33873;47.442;18.902;2023-05-16T09:35:26;5.40;;;2.70;;
48092;SDS011;33873;47.442;18.902;2023-05-16T09:37:57;2.90;;;1.98;;
48092;SDS011;33873;47.442;18.902;2023-05-16T09:40:24;3.25;;;1.80;;
48092;SDS011;33873;47.442;18.902;2023-05-16T09:43:02;5.12;;;2.50;;
48092;SDS011;33873;47.442;18.902;2023-05-16T09:45:31;3.37;;;2.03;;
48092;SDS011;33873;47.442;18.902;2023-05-16T09:48:02;3.85;;;2.15;;
48092;SDS011;33873;47.442;18.902;2023-05-16T09:50:32;5.10;;;2.83;;
48092;SDS011;33873;47.442;18.902;2023-05-16T09:53:01;7.55;;;2.85;;
48092;SDS011;33873;47.442;18.902;2023-05-16T09:55:29;5.32;;;1.92;;
48092;SDS011;33873;47.442;18.902;2023-05-16T09:57:57;4.20;;;2.53;;
48092;SDS011;33873;47.442;18.902;2023-05-16T10:00:28;4.57;;;2.60;;
48092;SDS011;33873;47.442;18.902;2023-05-16T10:02:58;4.75;;;2.60;;
48092;SDS011;33873;47.442;18.902;2023-05-16T10:05:31;4.97;;;2.95;;
48092;SDS011;33873;47.442;18.902;2023-05-16T10:07:59;7.05;;;3.95;;
48092;SDS011;33873;47.442;18.902;2023-05-16T10:10:28;6.03;;;3.05;;
48092;SDS011;33873;47.442;18.902;2023-05-16T10:12:57;6.97;;;2.95;;
48092;SDS011;33873;47.442;18.902;2023-05-16T10:15:28;4.30;;;2.62;;
48092;SDS011;33873;47.442;18.902;2023-05-16T10:17:56;5.32;;;3.25;;
48092;SDS011;33873;47.442;18.902;2023-05-16T10:20:28;4.93;;;2.90;;
48092;SDS011;33873;47.442;18.902;2023-05-16T10:22:56;9.93;;;3.72;;
48092;SDS011;33873;47.442;18.902;2023-05-16T10:25:39;6.22;;;3.90;;
48092;SDS011;33873;47.442;18.902;2023-05-16T10:28:08;5.72;;;3.53;;
48092;SDS011;33873;47.442;18.902;2023-05-16T10:30:36;4.97;;;2.22;;
48092;SDS011;33873;47.442;18.902;2023-05-16T10:33:07;4.47;;;2.95;;
48092;SDS011;33873;47.442;18.902;2023-05-16T10:35:36;5.55;;;3.58;;
48092;SDS011;33873;47.442;18.902;2023-05-16T10:38:05;6.40;;;3.33;;
48092;SDS011;33873;47.442;18.902;2023-05-16T10:40:34;5.00;;;3.50;;
48092;SDS011;33873;47.442;18.902;2023-05-16T10:43:03;6.30;;;3.78;;
48092;SDS011;33873;47.442;18.902;2023-05-16T10:45:32;4.72;;;3.35;;
48092;SDS011;33873;47.442;18.902;2023-05-16T10:48:01;6.45;;;4.18;;
48092;SDS011;33873;47.442;18.902;2023-05-16T10:50:40;4.90;;;3.20;;
48092;SDS011;33873;47.442;18.902;2023-05-16T10:55:49;6.07;;;3.30;;
48092;SDS011;33873;47.442;18.902;2023-05-16T10:58:22;5.68;;;3.22;;
48092;SDS011;33873;47.442;18.902;2023-05-16T11:01:37;6.37;;;3.33;;
48092;SDS011;33873;47.442;18.902;2023-05-16T11:04:01;5.18;;;2.70;;
48092;SDS011;33873;47.442;18.902;2023-05-16T11:16:59;5.72;;;3.17;;
48092;SDS011;33873;47.442;18.902;2023-05-16T11:27:29;5.20;;;2.67;;
48092;SDS011;33873;47.442;18.902;2023-05-16T11:30:19;4.90;;;3.00;;
48092;SDS011;33873;47.442;18.902;2023-05-16T11:32:48;7.53;;;3.55;;
48092;SDS011;33873;47.442;18.902;2023-05-16T11:35:17;6.95;;;2.78;;
48092;SDS011;33873;47.442;18.902;2023-05-16T11:37:44;3.83;;;2.47;;
48092;SDS011;33873;47.442;18.902;2023-05-16T11:40:13;9.63;;;3.60;;
48092;SDS011;33873;47.442;18.902;2023-05-16T11:42:45;7.37;;;2.70;;
48092;SDS011;33873;47.442;18.902;2023-05-16T11:45:18;8.55;;;4.47;;
48092;SDS011;33873;47.442;18.902;2023-05-16T11:47:48;8.10;;;3.97;;
48092;SDS011;33873;47.442;18.902;2023-05-16T11:50:17;3.67;;;2.53;;
48092;SDS011;33873;47.442;18.902;2023-05-16T11:52:47;5.47;;;3.45;;
48092;SDS011;33873;47.442;18.902;2023-05-16T11:55:16;7.45;;;3.90;;
48092;SDS011;33873;47.442;18.902;2023-05-16T11:58:07;4.70;;;3.22;;
48092;SDS011;33873;47.442;18.902;2023-05-16T12:00:34;4.00;;;2.78;;
48092;SDS011;33873;47.442;18.902;2023-05-16T12:03:03;7.00;;;4.32;;
48092;SDS011;33873;47.442;18.902;2023-05-16T12:05:32;6.75;;;3.60;;
48092;SDS011;33873;47.442;18.902;2023-05-16T12:08:02;7.18;;;4.53;;
48092;SDS011;33873;47.442;18.902;2023-05-16T12:10:31;5.90;;;4.62;;
48092;SDS011;33873;47.442;18.902;2023-05-16T12:13:02;6.40;;;4.37;;
48092;SDS011;33873;47.442;18.902;2023-05-16T12:15:30;7.03;;;4.53;;
48092;SDS011;33873;47.442;18.902;2023-05-16T12:17:57;10.18;;;4.80;;
48092;SDS011;33873;47.442;18.902;2023-05-16T12:20:26;7.70;;;4.10;;
48092;SDS011;33873;47.442;18.902;2023-05-16T12:22:56;6.05;;;4.55;;
48092;SDS011;33873;47.442;18.902;2023-05-16T12:25:28;10.50;;;5.28;;
48092;SDS011;33873;47.442;18.902;2023-05-16T12:28:00;14.90;;;3.42;;
48092;SDS011;33873;47.442;18.902;2023-05-16T12:30:29;4.28;;;2.85;;
48092;SDS011;33873;47.442;18.902;2023-05-16T12:35:32;3.17;;;2.17;;
48092;SDS011;33873;47.442;18.902;2023-05-16T12:38:04;7.05;;;4.50;;
48092;SDS011;33873;47.442;18.902;2023-05-16T12:40:37;5.25;;;3.67;;
48092;SDS011;33873;47.442;18.902;2023-05-16T12:43:15;6.70;;;3.85;;
48092;SDS011;33873;47.442;18.902;2023-05-16T12:45:52;8.40;;;4.55;;
48092;SDS011;33873;47.442;18.902;2023-05-16T12:48:30;7.55;;;3.17;;
48092;SDS011;33873;47.442;18.902;2023-05-16T12:51:13;6.35;;;3.80;;
48092;SDS011;33873;47.442;18.902;2023-05-16T12:53:43;5.70;;;3.12;;
48092;SDS011;33873;47.442;18.902;2023-05-16T12:56:27;6.93;;;3.10;;
48092;SDS011;33873;47.442;18.902;2023-05-16T12:58:55;6.50;;;3.50;;
48092;SDS011;33873;47.442;18.902;2023-05-16T13:01:23;4.75;;;3.15;;
48092;SDS011;33873;47.442;18.902;2023-05-16T13:03:51;6.72;;;3.47;;
48092;SDS011;33873;47.442;18.902;2023-05-16T13:06:20;5.82;;;2.80;;
48092;SDS011;33873;47.442;18.902;2023-05-16T13:08:47;7.00;;;3.05;;
48092;SDS011;33873;47.442;18.902;2023-05-16T13:11:15;6.20;;;3.58;;
48092;SDS011;33873;47.442;18.902;2023-05-16T13:13:42;5.22;;;3.00;;
48092;SDS011;33873;47.442;18.902;2023-05-16T13:16:10;8.65;;;2.47;;
48092;SDS011;33873;47.442;18.902;2023-05-16T13:18:38;5.15;;;3.45;;
48092;SDS011;33873;47.442;18.902;2023-05-16T13:21:06;4.50;;;3.00;;
48092;SDS011;33873;47.442;18.902;2023-05-16T13:23:33;6.95;;;3.22;;
48092;SDS011;33873;47.442;18.902;2023-05-16T13:26:01;3.58;;;2.78;;
48092;SDS011;33873;47.442;18.902;2023-05-16T13:28:29;11.90;;;4.62;;
48092;SDS011;33873;47.442;18.902;2023-05-16T13:30:58;7.93;;;4.00;;
48092;SDS011;33873;47.442;18.902;2023-05-16T13:33:27;9.18;;;3.53;;
48092;SDS011;33873;47.442;18.902;2023-05-16T13:35:54;6.22;;;4.00;;
48092;SDS011;33873;47.442;18.902;2023-05-16T13:38:22;8.82;;;3.12;;
48092;SDS011;33873;47.442;18.902;2023-05-16T13:40:50;5.45;;;3.40;;
48092;SDS011;33873;47.442;18.902;2023-05-16T13:43:17;8.05;;;4.75;;
48092;SDS011;33873;47.442;18.902;2023-05-16T13:45:45;9.65;;;4.37;;
48092;SDS011;33873;47.442;18.902;2023-05-16T13:48:13;10.43;;;4.32;;
48092;SDS011;33873;47.442;18.902;2023-05-16T13:50:41;7.75;;;3.97;;
48092;SDS011;33873;47.442;18.902;2023-05-16T13:53:10;8.23;;;4.12;;
48092;SDS011;33873;47.442;18.902;2023-05-16T13:55:38;7.90;;;3.87;;
48092;SDS011;33873;47.442;18.902;2023-05-16T13:58:06;6.07;;;4.28;;
48092;SDS011;33873;47.442;18.902;2023-05-16T14:00:34;9.95;;;3.58;;
48092;SDS011;33873;47.442;18.902;2023-05-16T14:03:12;5.18;;;3.33;;
48092;SDS011;33873;47.442;18.902;2023-05-16T14:05:40;7.03;;;3.87;;
48092;SDS011;33873;47.442;18.902;2023-05-16T14:08:08;7.93;;;3.72;;
48092;SDS011;33873;47.442;18.902;2023-05-16T14:10:36;8.77;;;4.62;;
48092;SDS011;33873;47.442;18.902;2023-05-16T14:13:03;5.25;;;3.00;;
48092;SDS011;33873;47.442;18.902;2023-05-16T14:15:31;5.22;;;2.97;;
48092;SDS011;33873;47.442;18.902;2023-05-16T14:17:58;6.65;;;4.28;;
48092;SDS011;33873;47.442;18.902;2023-05-16T14:20:26;7.15;;;3.95;;
48092;SDS011;33873;47.442;18.902;2023-05-16T14:22:54;4.28;;;3.33;;
48092;SDS011;33873;47.442;18.902;2023-05-16T14:25:21;10.65;;;4.40;;
48092;SDS011;33873;47.442;18.902;2023-05-16T14:27:49;8.15;;;3.28;;
48092;SDS011;33873;47.442;18.902;2023-05-16T14:30:17;6.10;;;3.70;;
48092;SDS011;33873;47.442;18.902;2023-05-16T14:32:45;4.65;;;2.95;;
48092;SDS011;33873;47.442;18.902;2023-05-16T14:35:12;5.15;;;2.67;;
48092;SDS011;33873;47.442;18.902;2023-05-16T14:37:40;8.05;;;3.42;;
48092;SDS011;33873;47.442;18.902;2023-05-16T14:40:08;6.95;;;4.18;;
48092;SDS011;33873;47.442;18.902;2023-05-16T14:42:36;7.00;;;3.58;;
48092;SDS011;33873;47.442;18.902;2023-05-16T14:45:04;5.47;;;3.20;;
48092;SDS011;33873;47.442;18.902;2023-05-16T14:47:32;6.68;;;3.87;;
48092;SDS011;33873;47.442;18.902;2023-05-16T14:50:00;6.75;;;4.03;;
48092;SDS011;33873;47.442;18.902;2023-05-16T14:52:28;4.87;;;3.55;;
48092;SDS011;33873;47.442;18.902;2023-05-16T14:54:55;7.47;;;3.85;;
48092;SDS011;33873;47.442;18.902;2023-05-16T14:57:23;8.50;;;3.92;;
48092;SDS011;33873;47.442;18.902;2023-05-16T14:59:51;9.38;;;3.67;;
48092;SDS011;33873;47.442;18.902;2023-05-16T15:02:18;6.32;;;3.42;;
48092;SDS011;33873;47.442;18.902;2023-05-16T15:04:47;7.95;;;3.65;;
48092;SDS011;33873;47.442;18.902;2023-05-16T15:07:14;6.03;;;3.90;;
48092;SDS011;33873;47.442;18.902;2023-05-16T15:09:42;8.82;;;4.28;;
48092;SDS011;33873;47.442;18.902;2023-05-16T15:12:10;8.32;;;4.30;;
48092;SDS011;33873;47.442;18.902;2023-05-16T15:14:37;8.63;;;3.83;;
48092;SDS011;33873;47.442;18.902;2023-05-16T15:17:05;12.15;;;5.32;;
48092;SDS011;33873;47.442;18.902;2023-05-16T15:19:35;11.43;;;4.72;;
48092;SDS011;33873;47.442;18.902;2023-05-16T15:22:02;6.82;;;4.32;;